sensor_id;sensor_type;location;lat;lon;timestamp;P1;durP1;ratioP1;P2;durP2;ratioP2
19343;SDS011;9808;52.402;16.678;2024-01-15T00:00:39;20.30;;;10.37;;
19343;SDS011;9808;52.402;16.678;2024-01-15T00:03:06;22.13;;;11.20;;
19343;SDS011;9808;52.402;16.678;2024-01-15T00:05:34;19.23;;;9.83;;
19343;SDS011;9808;52.402;16.678;2024-01-15T00:08:01;23.23;;;10.10;;
19343;SDS011;9808;52.402;16.678;2024-01-15T00:10:28;18.00;;;9.37;;
19343;SDS011;9808;52.402;16.678;2024-01-15T00:12:56;21.27;;;10.00;;
19343;SDS011;9808;52.402;16.678;2024-01-15T00:15:23;20.60;;;10.43;;
19343;SDS011;9808;52.402;16.678;2024-01-15T00:17:50;17.57;;;9.53;;
19343;SDS011;9808;52.402;16.678;2024-01-15T00:20:17;22.23;;;10.60;;
19343;SDS011;9808;52.402;16.678;2024-01-15T00:22:45;22.40;;;10.20;;
19343;SDS011;9808;52.402;16.678;2024-01-15T00:25:12;21.60;;;10.20;;
19343;SDS011;9808;52.402;16.678;2024-01-15T00:27:39;24.97;;;10.30;;
19343;SDS011;9808;52.402;16.678;2024-01-15T00:30:06;19.47;;;10.13;;
19343;SDS011;9808;52.402;16.678;2024-01-15T00:32:34;21.70;;;9.77;;
19343;SDS011;9808;52.402;16.678;2024-01-15T00:35:01;20.30;;;10.17;;
19343;SDS011;9808;52.402;16.678;2024-01-15T00:37:35;18.90;;;10.20;;
19343;SDS011;9808;52.402;16.678;2024-01-15T00:40:02;25.40;;;11.43;;
19343;SDS011;9808;52.402;16.678;2024-01-15T00:42:29;22.50;;;10.93;;
19343;SDS011;9808;52.402;16.678;2024-01-15T00:44:56;21.03;;;10.33;;
19343;SDS011;9808;52.402;16.678;2024-01-15T00:47:24;20.77;;;11.07;;
19343;SDS011;9808;52.402;16.678;2024-01-15T00:49:51;23.40;;;10.77;;
19343;SDS011;9808;52.402;16.678;2024-01-15T00:52:18;23.50;;;11.30;;
19343;SDS011;9808;52.402;16.678;2024-01-15T00:54:45;21.00;;;10.87;;
19343;SDS011;9808;52.402;16.678;2024-01-15T00:57:13;19.50;;;10.00;;
19343;SDS011;9808;52.402;16.678;2024-01-15T00:59:40;23.03;;;10.93;;
19343;SDS011;9808;52.402;16.678;2024-01-15T01:02:07;23.67;;;11.33;;
19343;SDS011;9808;52.402;16.678;2024-01-15T01:04:34;22.37;;;11.27;;
19343;SDS011;9808;52.402;16.678;2024-01-15T01:07:01;21.30;;;10.47;;
19343;SDS011;9808;52.402;16.678;2024-01-15T01:09:28;24.40;;;11.30;;
19343;SDS011;9808;52.402;16.678;2024-01-15T01:11:56;27.17;;;10.87;;
19343;SDS011;9808;52.402;16.678;2024-01-15T01:14:23;19.93;;;10.47;;
19343;SDS011;9808;52.402;16.678;2024-01-15T01:16:51;20.80;;;9.93;;
19343;SDS011;9808;52.402;16.678;2024-01-15T01:19:18;24.50;;;11.43;;
19343;SDS011;9808;52.402;16.678;2024-01-15T01:21:46;19.50;;;9.97;;
19343;SDS011;9808;52.402;16.678;2024-01-15T01:24:13;24.53;;;10.97;;
19343;SDS011;9808;52.402;16.678;2024-01-15T01:26:40;19.07;;;9.73;;
19343;SDS011;9808;52.402;16.678;2024-01-15T01:29:07;22.90;;;10.30;;
19343;SDS011;9808;52.402;16.678;2024-01-15T01:31:35;23.87;;;10.90;;
19343;SDS011;9808;52.402;16.678;2024-01-15T01:34:02;22.40;;;10.77;;
19343;SDS011;9808;52.402;16.678;2024-01-15T01:36:31;20.53;;;9.67;;
19343;SDS011;9808;52.402;16.678;2024-01-15T01:38:58;21.57;;;11.10;;
19343;SDS011;9808;52.402;16.678;2024-01-15T01:41:25;22.60;;;10.57;;
19343;SDS011;9808;52.402;16.678;2024-01-15T01:43:52;27.83;;;11.73;;
19343;SDS011;9808;52.402;16.678;2024-01-15T01:46:20;20.77;;;10.93;;
19343;SDS011;9808;52.402;16.678;2024-01-15T01:48:47;22.50;;;10.43;;
19343;SDS011;9808;52.402;16.678;2024-01-15T01:51:14;22.40;;;10.47;;
19343;SDS011;9808;52.402;16.678;2024-01-15T01:53:43;22.33;;;11.10;;
19343;SDS011;9808;52.402;16.678;2024-01-15T01:56:11;23.87;;;11.53;;
19343;SDS011;9808;52.402;16.678;2024-01-15T01:58:39;23.40;;;10.60;;
19343;SDS011;9808;52.402;16.678;2024-01-15T02:01:07;23.13;;;10.53;;
19343;SDS011;9808;52.402;16.678;2024-01-15T02:03:34;21.10;;;10.10;;
19343;SDS011;9808;52.402;16.678;2024-01-15T02:06:02;26.30;;;11.20;;
19343;SDS011;9808;52.402;16.678;2024-01-15T02:08:30;23.20;;;11.77;;
19343;SDS011;9808;52.402;16.678;2024-01-15T02:10:57;26.50;;;11.73;;
19343;SDS011;9808;52.402;16.678;2024-01-15T02:13:24;22.17;;;10.83;;
19343;SDS011;9808;52.402;16.678;2024-01-15T02:15:51;22.43;;;10.63;;
19343;SDS011;9808;52.402;16.678;2024-01-15T02:18:18;23.23;;;10.47;;
19343;SDS011;9808;52.402;16.678;2024-01-15T02:20:46;19.57;;;9.67;;
19343;SDS011;9808;52.402;16.678;2024-01-15T02:23:14;20.17;;;9.90;;
19343;SDS011;9808;52.402;16.678;2024-01-15T02:25:45;19.73;;;9.50;;
19343;SDS011;9808;52.402;16.678;2024-01-15T02:28:14;20.00;;;9.47;;
19343;SDS011;9808;52.402;16.678;2024-01-15T02:30:42;22.67;;;10.33;;
19343;SDS011;9808;52.402;16.678;2024-01-15T02:33:10;20.93;;;10.17;;
19343;SDS011;9808;52.402;16.678;2024-01-15T02:35:38;20.67;;;11.07;;
19343;SDS011;9808;52.402;16.678;2024-01-15T02:38:06;24.73;;;11.23;;
19343;SDS011;9808;52.402;16.678;2024-01-15T02:40:34;22.40;;;10.43;;
19343;SDS011;9808;52.402;16.678;2024-01-15T02:43:02;24.10;;;10.27;;
19343;SDS011;9808;52.402;16.678;2024-01-15T02:45:29;19.63;;;10.00;;
19343;SDS011;9808;52.402;16.678;2024-01-15T02:47:56;21.40;;;10.20;;
19343;SDS011;9808;52.402;16.678;2024-01-15T02:50:24;19.20;;;9.30;;
19343;SDS011;9808;52.402;16.678;2024-01-15T02:52:51;19.60;;;9.60;;
19343;SDS011;9808;52.402;16.678;2024-01-15T02:55:18;21.90;;;10.47;;
19343;SDS011;9808;52.402;16.678;2024-01-15T02:57:46;19.20;;;9.57;;
19343;SDS011;9808;52.402;16.678;2024-01-15T03:00:13;22.27;;;10.90;;
19343;SDS011;9808;52.402;16.678;2024-01-15T03:02:41;19.70;;;9.67;;
19343;SDS011;9808;52.402;16.678;2024-01-15T03:05:14;24.50;;;11.10;;
19343;SDS011;9808;52.402;16.678;2024-01-15T03:07:41;24.33;;;9.97;;
19343;SDS011;9808;52.402;16.678;2024-01-15T03:10:09;20.50;;;9.87;;
19343;SDS011;9808;52.402;16.678;2024-01-15T03:12:36;23.63;;;9.63;;
19343;SDS011;9808;52.402;16.678;2024-01-15T03:15:03;20.97;;;9.40;;
19343;SDS011;9808;52.402;16.678;2024-01-15T03:17:31;18.27;;;9.43;;
19343;SDS011;9808;52.402;16.678;2024-01-15T03:19:58;18.87;;;9.47;;
19343;SDS011;9808;52.402;16.678;2024-01-15T03:22:25;20.83;;;9.80;;
19343;SDS011;9808;52.402;16.678;2024-01-15T03:24:53;22.97;;;9.53;;
19343;SDS011;9808;52.402;16.678;2024-01-15T03:27:20;18.27;;;8.47;;
19343;SDS011;9808;52.402;16.678;2024-01-15T03:29:47;18.50;;;8.80;;
19343;SDS011;9808;52.402;16.678;2024-01-15T03:32:14;20.93;;;8.80;;
19343;SDS011;9808;52.402;16.678;2024-01-15T03:34:42;18.90;;;8.63;;
19343;SDS011;9808;52.402;16.678;2024-01-15T03:37:10;17.43;;;9.03;;
19343;SDS011;9808;52.402;16.678;2024-01-15T03:39:37;22.90;;;9.63;;
19343;SDS011;9808;52.402;16.678;2024-01-15T03:42:04;21.50;;;8.87;;
19343;SDS011;9808;52.402;16.678;2024-01-15T03:44:32;17.63;;;9.10;;
19343;SDS011;9808;52.402;16.678;2024-01-15T03:46:59;19.33;;;9.40;;
19343;SDS011;9808;52.402;16.678;2024-01-15T03:49:27;20.53;;;10.20;;
19343;SDS011;9808;52.402;16.678;2024-01-15T03:51:54;15.73;;;8.13;;
19343;SDS011;9808;52.402;16.678;2024-01-15T03:54:21;19.70;;;9.83;;
19343;SDS011;9808;52.402;16.678;2024-01-15T03:56:48;17.97;;;9.50;;
19343;SDS011;9808;52.402;16.678;2024-01-15T03:59:16;20.80;;;9.73;;
19343;SDS011;9808;52.402;16.678;2024-01-15T04:01:48;22.90;;;10.27;;
19343;SDS011;9808;52.402;16.678;2024-01-15T04:04:16;21.33;;;10.33;;
19343;SDS011;9808;52.402;16.678;2024-01-15T04:06:43;19.73;;;9.47;;
19343;SDS011;9808;52.402;16.678;2024-01-15T04:09:14;19.47;;;8.93;;
19343;SDS011;9808;52.402;16.678;2024-01-15T04:11:41;18.40;;;8.80;;
19343;SDS011;9808;52.402;16.678;2024-01-15T04:14:08;18.50;;;9.03;;
19343;SDS011;9808;52.402;16.678;2024-01-15T04:16:37;15.63;;;8.10;;
19343;SDS011;9808;52.402;16.678;2024-01-15T04:19:04;17.47;;;9.00;;
19343;SDS011;9808;52.402;16.678;2024-01-15T04:21:31;16.40;;;8.20;;
19343;SDS011;9808;52.402;16.678;2024-01-15T04:23:59;15.63;;;8.37;;
19343;SDS011;9808;52.402;16.678;2024-01-15T04:26:26;18.30;;;8.33;;
19343;SDS011;9808;52.402;16.678;2024-01-15T04:28:53;19.40;;;8.33;;
19343;SDS011;9808;52.402;16.678;2024-01-15T04:31:23;17.33;;;7.40;;
19343;SDS011;9808;52.402;16.678;2024-01-15T04:33:51;16.87;;;7.63;;
19343;SDS011;9808;52.402;16.678;2024-01-15T04:36:18;18.60;;;7.67;;
19343;SDS011;9808;52.402;16.678;2024-01-15T04:38:46;16.17;;;8.13;;
19343;SDS011;9808;52.402;16.678;2024-01-15T04:41:13;16.67;;;8.07;;
19343;SDS011;9808;52.402;16.678;2024-01-15T04:43:40;20.40;;;8.10;;
19343;SDS011;9808;52.402;16.678;2024-01-15T04:46:08;21.43;;;8.10;;
19343;SDS011;9808;52.402;16.678;2024-01-15T04:48:36;18.93;;;8.40;;
19343;SDS011;9808;52.402;16.678;2024-01-15T04:51:04;17.97;;;7.47;;
19343;SDS011;9808;52.402;16.678;2024-01-15T04:53:31;15.97;;;7.63;;
19343;SDS011;9808;52.402;16.678;2024-01-15T04:55:59;16.33;;;7.90;;
19343;SDS011;9808;52.402;16.678;2024-01-15T04:58:26;24.67;;;9.47;;
19343;SDS011;9808;52.402;16.678;2024-01-15T05:00:53;20.50;;;8.43;;
19343;SDS011;9808;52.402;16.678;2024-01-15T05:03:21;15.87;;;7.80;;
19343;SDS011;9808;52.402;16.678;2024-01-15T05:05:48;15.43;;;7.47;;
19343;SDS011;9808;52.402;16.678;2024-01-15T05:08:15;13.53;;;6.77;;
19343;SDS011;9808;52.402;16.678;2024-01-15T05:10:42;11.40;;;5.83;;
19343;SDS011;9808;52.402;16.678;2024-01-15T05:13:10;13.13;;;6.10;;
19343;SDS011;9808;52.402;16.678;2024-01-15T05:15:37;14.13;;;6.33;;
19343;SDS011;9808;52.402;16.678;2024-01-15T05:18:05;14.07;;;6.40;;
19343;SDS011;9808;52.402;16.678;2024-01-15T05:20:33;11.70;;;5.83;;
19343;SDS011;9808;52.402;16.678;2024-01-15T05:23:01;11.70;;;5.90;;
19343;SDS011;9808;52.402;16.678;2024-01-15T05:25:28;13.37;;;6.13;;
19343;SDS011;9808;52.402;16.678;2024-01-15T05:27:55;20.73;;;6.20;;
19343;SDS011;9808;52.402;16.678;2024-01-15T05:30:22;11.63;;;5.77;;
19343;SDS011;9808;52.402;16.678;2024-01-15T05:32:50;14.60;;;5.53;;
19343;SDS011;9808;52.402;16.678;2024-01-15T05:35:17;12.97;;;5.77;;
19343;SDS011;9808;52.402;16.678;2024-01-15T05:37:45;14.60;;;6.53;;
19343;SDS011;9808;52.402;16.678;2024-01-15T05:40:12;13.70;;;6.13;;
19343;SDS011;9808;52.402;16.678;2024-01-15T05:42:40;13.90;;;6.20;;
19343;SDS011;9808;52.402;16.678;2024-01-15T05:45:07;13.83;;;5.90;;
19343;SDS011;9808;52.402;16.678;2024-01-15T05:47:35;14.87;;;5.87;;
19343;SDS011;9808;52.402;16.678;2024-01-15T05:50:02;15.03;;;5.90;;
19343;SDS011;9808;52.402;16.678;2024-01-15T05:52:29;16.60;;;6.07;;
19343;SDS011;9808;52.402;16.678;2024-01-15T05:54:57;13.33;;;5.80;;
19343;SDS011;9808;52.402;16.678;2024-01-15T05:57:24;11.43;;;5.30;;
19343;SDS011;9808;52.402;16.678;2024-01-15T05:59:51;16.97;;;6.47;;
19343;SDS011;9808;52.402;16.678;2024-01-15T06:02:19;23.83;;;6.57;;
19343;SDS011;9808;52.402;16.678;2024-01-15T06:04:46;13.67;;;5.77;;
19343;SDS011;9808;52.402;16.678;2024-01-15T06:07:13;13.60;;;6.50;;
19343;SDS011;9808;52.402;16.678;2024-01-15T06:09:41;16.70;;;7.33;;
19343;SDS011;9808;52.402;16.678;2024-01-15T06:12:08;13.10;;;7.03;;
19343;SDS011;9808;52.402;16.678;2024-01-15T06:14:35;15.80;;;6.57;;
19343;SDS011;9808;52.402;16.678;2024-01-15T06:17:03;12.87;;;6.87;;
19343;SDS011;9808;52.402;16.678;2024-01-15T06:19:30;15.37;;;6.50;;
19343;SDS011;9808;52.402;16.678;2024-01-15T06:21:58;13.77;;;7.17;;
19343;SDS011;9808;52.402;16.678;2024-01-15T06:24:25;17.97;;;5.83;;
19343;SDS011;9808;52.402;16.678;2024-01-15T06:26:52;11.90;;;6.10;;
19343;SDS011;9808;52.402;16.678;2024-01-15T06:29:19;14.57;;;6.20;;
19343;SDS011;9808;52.402;16.678;2024-01-15T06:31:47;13.33;;;6.23;;
19343;SDS011;9808;52.402;16.678;2024-01-15T06:34:14;12.53;;;5.90;;
19343;SDS011;9808;52.402;16.678;2024-01-15T06:36:42;16.60;;;6.70;;
19343;SDS011;9808;52.402;16.678;2024-01-15T06:39:09;12.33;;;5.87;;
19343;SDS011;9808;52.402;16.678;2024-01-15T06:41:37;15.73;;;6.07;;
19343;SDS011;9808;52.402;16.678;2024-01-15T06:44:10;14.70;;;6.83;;
19343;SDS011;9808;52.402;16.678;2024-01-15T06:46:44;16.13;;;6.37;;
19343;SDS011;9808;52.402;16.678;2024-01-15T06:49:11;16.27;;;6.67;;
19343;SDS011;9808;52.402;16.678;2024-01-15T06:51:39;17.23;;;6.90;;
19343;SDS011;9808;52.402;16.678;2024-01-15T06:54:06;14.87;;;6.97;;
19343;SDS011;9808;52.402;16.678;2024-01-15T06:56:33;18.00;;;6.83;;
19343;SDS011;9808;52.402;16.678;2024-01-15T06:59:01;18.23;;;7.57;;
19343;SDS011;9808;52.402;16.678;2024-01-15T07:01:29;14.13;;;6.37;;
19343;SDS011;9808;52.402;16.678;2024-01-15T07:03:56;13.20;;;6.33;;
19343;SDS011;9808;52.402;16.678;2024-01-15T07:06:23;12.50;;;6.13;;
19343;SDS011;9808;52.402;16.678;2024-01-15T07:08:51;12.70;;;5.83;;
19343;SDS011;9808;52.402;16.678;2024-01-15T07:11:18;15.67;;;6.83;;
19343;SDS011;9808;52.402;16.678;2024-01-15T07:13:45;14.43;;;5.97;;
19343;SDS011;9808;52.402;16.678;2024-01-15T07:16:12;15.63;;;6.30;;
19343;SDS011;9808;52.402;16.678;2024-01-15T07:18:50;17.03;;;6.40;;
19343;SDS011;9808;52.402;16.678;2024-01-15T07:21:17;16.63;;;7.40;;
19343;SDS011;9808;52.402;16.678;2024-01-15T07:23:45;14.70;;;6.30;;
19343;SDS011;9808;52.402;16.678;2024-01-15T07:26:13;18.33;;;7.23;;
19343;SDS011;9808;52.402;16.678;2024-01-15T07:28:40;17.10;;;6.57;;
19343;SDS011;9808;52.402;16.678;2024-01-15T07:31:08;14.20;;;7.57;;
19343;SDS011;9808;52.402;16.678;2024-01-15T07:33:35;15.17;;;7.07;;
19343;SDS011;9808;52.402;16.678;2024-01-15T07:36:03;17.90;;;6.57;;
19343;SDS011;9808;52.402;16.678;2024-01-15T07:38:30;11.93;;;6.03;;
19343;SDS011;9808;52.402;16.678;2024-01-15T07:40:57;12.90;;;6.57;;
19343;SDS011;9808;52.402;16.678;2024-01-15T07:43:24;18.33;;;6.47;;
19343;SDS011;9808;52.402;16.678;2024-01-15T07:45:52;17.37;;;7.03;;
19343;SDS011;9808;52.402;16.678;2024-01-15T07:48:20;14.07;;;6.57;;
19343;SDS011;9808;52.402;16.678;2024-01-15T07:50:47;16.40;;;6.67;;
19343;SDS011;9808;52.402;16.678;2024-01-15T07:53:14;16.57;;;6.67;;
19343;SDS011;9808;52.402;16.678;2024-01-15T07:55:42;12.50;;;5.40;;
19343;SDS011;9808;52.402;16.678;2024-01-15T07:58:09;17.13;;;6.90;;
19343;SDS011;9808;52.402;16.678;2024-01-15T08:00:42;14.43;;;6.53;;
19343;SDS011;9808;52.402;16.678;2024-01-15T08:03:10;17.27;;;6.67;;
19343;SDS011;9808;52.402;16.678;2024-01-15T08:05:38;17.10;;;6.43;;
19343;SDS011;9808;52.402;16.678;2024-01-15T08:08:05;17.73;;;6.80;;
19343;SDS011;9808;52.402;16.678;2024-01-15T08:10:32;20.37;;;7.00;;
19343;SDS011;9808;52.402;16.678;2024-01-15T08:12:59;17.23;;;6.50;;
19343;SDS011;9808;52.402;16.678;2024-01-15T08:15:27;19.93;;;6.33;;
19343;SDS011;9808;52.402;16.678;2024-01-15T08:17:57;13.93;;;6.10;;
19343;SDS011;9808;52.402;16.678;2024-01-15T08:20:25;14.97;;;6.27;;
19343;SDS011;9808;52.402;16.678;2024-01-15T08:22:53;16.97;;;6.63;;
19343;SDS011;9808;52.402;16.678;2024-01-15T08:25:20;13.97;;;6.10;;
19343;SDS011;9808;52.402;16.678;2024-01-15T08:27:47;14.77;;;5.83;;
19343;SDS011;9808;52.402;16.678;2024-01-15T08:30:15;16.40;;;6.17;;
19343;SDS011;9808;52.402;16.678;2024-01-15T08:32:42;23.40;;;6.10;;
19343;SDS011;9808;52.402;16.678;2024-01-15T08:35:10;12.27;;;5.57;;
19343;SDS011;9808;52.402;16.678;2024-01-15T08:37:38;14.80;;;6.60;;
19343;SDS011;9808;52.402;16.678;2024-01-15T08:40:05;15.60;;;6.17;;
19343;SDS011;9808;52.402;16.678;2024-01-15T08:42:33;15.57;;;7.00;;
19343;SDS011;9808;52.402;16.678;2024-01-15T08:45:00;17.77;;;7.23;;
19343;SDS011;9808;52.402;16.678;2024-01-15T08:47:28;18.00;;;7.17;;
19343;SDS011;9808;52.402;16.678;2024-01-15T08:49:55;16.30;;;6.43;;
19343;SDS011;9808;52.402;16.678;2024-01-15T08:52:22;15.97;;;6.30;;
19343;SDS011;9808;52.402;16.678;2024-01-15T08:54:49;13.67;;;6.40;;
19343;SDS011;9808;52.402;16.678;2024-01-15T08:57:16;13.47;;;6.50;;
19343;SDS011;9808;52.402;16.678;2024-01-15T08:59:44;17.37;;;7.00;;
19343;SDS011;9808;52.402;16.678;2024-01-15T09:02:11;16.93;;;5.87;;
19343;SDS011;9808;52.402;16.678;2024-01-15T09:04:39;14.83;;;6.10;;
19343;SDS011;9808;52.402;16.678;2024-01-15T09:07:07;15.73;;;6.97;;
19343;SDS011;9808;52.402;16.678;2024-01-15T09:09:34;16.07;;;6.67;;
19343;SDS011;9808;52.402;16.678;2024-01-15T09:12:02;16.37;;;6.80;;
19343;SDS011;9808;52.402;16.678;2024-01-15T09:14:29;15.20;;;6.47;;
19343;SDS011;9808;52.402;16.678;2024-01-15T09:17:03;14.03;;;6.17;;
19343;SDS011;9808;52.402;16.678;2024-01-15T09:19:31;19.10;;;6.67;;
19343;SDS011;9808;52.402;16.678;2024-01-15T09:21:59;17.77;;;6.67;;
19343;SDS011;9808;52.402;16.678;2024-01-15T09:24:26;18.87;;;7.30;;
19343;SDS011;9808;52.402;16.678;2024-01-15T09:26:54;14.10;;;6.80;;
19343;SDS011;9808;52.402;16.678;2024-01-15T09:29:22;18.60;;;6.57;;
19343;SDS011;9808;52.402;16.678;2024-01-15T09:31:50;17.93;;;6.60;;
19343;SDS011;9808;52.402;16.678;2024-01-15T09:34:18;18.60;;;7.00;;
19343;SDS011;9808;52.402;16.678;2024-01-15T09:36:46;20.37;;;7.80;;
19343;SDS011;9808;52.402;16.678;2024-01-15T09:39:15;19.10;;;6.37;;
19343;SDS011;9808;52.402;16.678;2024-01-15T09:41:42;16.17;;;5.30;;
19343;SDS011;9808;52.402;16.678;2024-01-15T09:44:10;13.53;;;5.03;;
19343;SDS011;9808;52.402;16.678;2024-01-15T09:46:37;18.90;;;6.53;;
19343;SDS011;9808;52.402;16.678;2024-01-15T09:49:05;13.63;;;4.47;;
19343;SDS011;9808;52.402;16.678;2024-01-15T09:51:32;13.37;;;5.20;;
19343;SDS011;9808;52.402;16.678;2024-01-15T09:54:00;15.97;;;5.73;;
19343;SDS011;9808;52.402;16.678;2024-01-15T09:56:27;11.23;;;4.87;;
19343;SDS011;9808;52.402;16.678;2024-01-15T09:58:54;13.17;;;4.73;;
19343;SDS011;9808;52.402;16.678;2024-01-15T10:01:23;12.80;;;5.30;;
19343;SDS011;9808;52.402;16.678;2024-01-15T10:03:50;13.97;;;5.33;;
19343;SDS011;9808;52.402;16.678;2024-01-15T10:06:19;12.43;;;5.70;;
19343;SDS011;9808;52.402;16.678;2024-01-15T10:08:49;14.20;;;6.47;;
19343;SDS011;9808;52.402;16.678;2024-01-15T10:11:16;14.03;;;5.90;;
19343;SDS011;9808;52.402;16.678;2024-01-15T10:13:44;15.83;;;5.90;;
19343;SDS011;9808;52.402;16.678;2024-01-15T10:16:13;14.20;;;5.37;;
19343;SDS011;9808;52.402;16.678;2024-01-15T10:18:40;10.77;;;4.57;;
19343;SDS011;9808;52.402;16.678;2024-01-15T10:21:08;21.60;;;5.63;;
19343;SDS011;9808;52.402;16.678;2024-01-15T10:23:36;15.60;;;5.27;;
19343;SDS011;9808;52.402;16.678;2024-01-15T10:26:03;12.87;;;5.07;;
19343;SDS011;9808;52.402;16.678;2024-01-15T10:28:30;15.73;;;5.37;;
19343;SDS011;9808;52.402;16.678;2024-01-15T10:30:58;10.40;;;4.23;;
19343;SDS011;9808;52.402;16.678;2024-01-15T10:33:26;17.73;;;5.30;;
19343;SDS011;9808;52.402;16.678;2024-01-15T10:35:57;13.57;;;4.67;;
19343;SDS011;9808;52.402;16.678;2024-01-15T10:38:26;10.77;;;4.23;;
19343;SDS011;9808;52.402;16.678;2024-01-15T10:40:54;12.53;;;4.37;;
19343;SDS011;9808;52.402;16.678;2024-01-15T10:43:22;10.83;;;4.10;;
19343;SDS011;9808;52.402;16.678;2024-01-15T10:45:54;8.77;;;3.63;;
19343;SDS011;9808;52.402;16.678;2024-01-15T10:48:21;11.33;;;3.80;;
19343;SDS011;9808;52.402;16.678;2024-01-15T10:50:49;11.13;;;4.57;;
19343;SDS011;9808;52.402;16.678;2024-01-15T10:53:16;12.67;;;4.13;;
19343;SDS011;9808;52.402;16.678;2024-01-15T10:55:44;14.07;;;4.30;;
19343;SDS011;9808;52.402;16.678;2024-01-15T10:58:14;13.13;;;4.00;;
19343;SDS011;9808;52.402;16.678;2024-01-15T11:00:43;14.83;;;4.70;;
19343;SDS011;9808;52.402;16.678;2024-01-15T11:03:11;12.30;;;4.07;;
19343;SDS011;9808;52.402;16.678;2024-01-15T11:05:39;9.03;;;3.23;;
19343;SDS011;9808;52.402;16.678;2024-01-15T11:08:09;14.60;;;4.57;;
19343;SDS011;9808;52.402;16.678;2024-01-15T11:10:44;9.13;;;3.83;;
19343;SDS011;9808;52.402;16.678;2024-01-15T11:13:13;10.57;;;4.13;;
19343;SDS011;9808;52.402;16.678;2024-01-15T11:16:00;18.40;;;5.10;;
19343;SDS011;9808;52.402;16.678;2024-01-15T11:18:29;22.73;;;5.43;;
19343;SDS011;9808;52.402;16.678;2024-01-15T11:23:46;8.60;;;3.47;;
19343;SDS011;9808;52.402;16.678;2024-01-15T11:26:28;17.07;;;3.90;;
19343;SDS011;9808;52.402;16.678;2024-01-15T11:28:57;14.90;;;3.90;;
19343;SDS011;9808;52.402;16.678;2024-01-15T11:34:06;10.63;;;3.43;;
19343;SDS011;9808;52.402;16.678;2024-01-15T11:42:00;8.37;;;3.50;;
19343;SDS011;9808;52.402;16.678;2024-01-15T11:44:27;11.23;;;3.67;;
19343;SDS011;9808;52.402;16.678;2024-01-15T11:46:58;14.90;;;4.43;;
19343;SDS011;9808;52.402;16.678;2024-01-15T11:49:31;15.40;;;3.97;;
19343;SDS011;9808;52.402;16.678;2024-01-15T11:52:07;12.40;;;3.60;;
19343;SDS011;9808;52.402;16.678;2024-01-15T11:54:38;7.70;;;3.60;;
19343;SDS011;9808;52.402;16.678;2024-01-15T11:57:09;15.33;;;3.57;;
19343;SDS011;9808;52.402;16.678;2024-01-15T11:59:37;9.43;;;3.50;;
19343;SDS011;9808;52.402;16.678;2024-01-15T12:02:04;11.13;;;4.03;;
19343;SDS011;9808;52.402;16.678;2024-01-15T12:04:31;10.77;;;3.70;;
19343;SDS011;9808;52.402;16.678;2024-01-15T12:06:58;11.53;;;4.30;;
19343;SDS011;9808;52.402;16.678;2024-01-15T12:09:26;11.13;;;3.90;;
19343;SDS011;9808;52.402;16.678;2024-01-15T12:12:00;11.13;;;3.47;;
19343;SDS011;9808;52.402;16.678;2024-01-15T12:14:33;11.30;;;4.50;;
19343;SDS011;9808;52.402;16.678;2024-01-15T12:17:01;20.50;;;5.20;;
19343;SDS011;9808;52.402;16.678;2024-01-15T12:19:31;16.33;;;4.87;;
19343;SDS011;9808;52.402;16.678;2024-01-15T12:21:58;14.17;;;4.10;;
19343;SDS011;9808;52.402;16.678;2024-01-15T12:24:25;15.33;;;4.20;;
19343;SDS011;9808;52.402;16.678;2024-01-15T12:26:53;11.60;;;3.70;;
19343;SDS011;9808;52.402;16.678;2024-01-15T12:29:20;10.17;;;3.67;;
19343;SDS011;9808;52.402;16.678;2024-01-15T12:31:48;15.70;;;3.27;;
19343;SDS011;9808;52.402;16.678;2024-01-15T12:34:15;13.93;;;4.13;;
19343;SDS011;9808;52.402;16.678;2024-01-15T12:36:46;13.13;;;3.83;;
19343;SDS011;9808;52.402;16.678;2024-01-15T12:39:13;11.60;;;3.33;;
19343;SDS011;9808;52.402;16.678;2024-01-15T12:41:41;9.10;;;3.00;;
19343;SDS011;9808;52.402;16.678;2024-01-15T12:44:09;8.50;;;3.33;;
19343;SDS011;9808;52.402;16.678;2024-01-15T12:46:36;8.20;;;3.07;;
19343;SDS011;9808;52.402;16.678;2024-01-15T12:49:04;10.90;;;3.60;;
19343;SDS011;9808;52.402;16.678;2024-01-15T12:51:31;9.43;;;3.47;;
19343;SDS011;9808;52.402;16.678;2024-01-15T12:54:01;10.83;;;2.83;;
19343;SDS011;9808;52.402;16.678;2024-01-15T12:56:28;9.60;;;2.90;;
19343;SDS011;9808;52.402;16.678;2024-01-15T12:58:55;7.83;;;3.10;;
19343;SDS011;9808;52.402;16.678;2024-01-15T13:01:22;10.27;;;3.03;;
19343;SDS011;9808;52.402;16.678;2024-01-15T13:03:50;11.57;;;3.80;;
19343;SDS011;9808;52.402;16.678;2024-01-15T13:06:17;6.87;;;3.00;;
19343;SDS011;9808;52.402;16.678;2024-01-15T13:08:45;8.10;;;3.13;;
19343;SDS011;9808;52.402;16.678;2024-01-15T13:11:12;10.67;;;2.93;;
19343;SDS011;9808;52.402;16.678;2024-01-15T13:13:43;9.17;;;2.80;;
19343;SDS011;9808;52.402;16.678;2024-01-15T13:16:12;7.30;;;2.20;;
19343;SDS011;9808;52.402;16.678;2024-01-15T13:18:39;8.83;;;3.20;;
19343;SDS011;9808;52.402;16.678;2024-01-15T13:21:08;11.30;;;3.63;;
19343;SDS011;9808;52.402;16.678;2024-01-15T13:23:35;9.43;;;3.47;;
19343;SDS011;9808;52.402;16.678;2024-01-15T13:26:04;14.63;;;3.43;;
19343;SDS011;9808;52.402;16.678;2024-01-15T13:28:42;11.43;;;4.07;;
19343;SDS011;9808;52.402;16.678;2024-01-15T13:31:09;9.30;;;3.43;;
19343;SDS011;9808;52.402;16.678;2024-01-15T13:33:37;10.63;;;3.00;;
19343;SDS011;9808;52.402;16.678;2024-01-15T13:36:07;7.13;;;2.73;;
19343;SDS011;9808;52.402;16.678;2024-01-15T13:38:37;8.03;;;2.93;;
19343;SDS011;9808;52.402;16.678;2024-01-15T13:41:04;7.20;;;2.90;;
19343;SDS011;9808;52.402;16.678;2024-01-15T13:43:32;9.47;;;3.43;;
19343;SDS011;9808;52.402;16.678;2024-01-15T13:45:59;10.97;;;2.80;;
19343;SDS011;9808;52.402;16.678;2024-01-15T13:54:34;7.27;;;3.13;;
19343;SDS011;9808;52.402;16.678;2024-01-15T13:57:15;7.00;;;2.47;;
19343;SDS011;9808;52.402;16.678;2024-01-15T14:10:52;10.00;;;3.20;;
19343;SDS011;9808;52.402;16.678;2024-01-15T14:20:43;12.30;;;3.40;;
19343;SDS011;9808;52.402;16.678;2024-01-15T14:23:17;10.03;;;2.83;;
19343;SDS011;9808;52.402;16.678;2024-01-15T14:25:47;9.53;;;2.73;;
19343;SDS011;9808;52.402;16.678;2024-01-15T14:28:14;10.20;;;2.40;;
19343;SDS011;9808;52.402;16.678;2024-01-15T14:30:41;7.67;;;2.70;;
19343;SDS011;9808;52.402;16.678;2024-01-15T14:33:09;53.00;;;16.13;;
19343;SDS011;9808;52.402;16.678;2024-01-15T14:35:37;31.57;;;7.57;;
19343;SDS011;9808;52.402;16.678;2024-01-15T14:38:04;13.67;;;3.03;;
19343;SDS011;9808;52.402;16.678;2024-01-15T14:40:31;3.97;;;1.50;;
19343;SDS011;9808;52.402;16.678;2024-01-15T14:42:59;6.40;;;1.20;;
19343;SDS011;9808;52.402;16.678;2024-01-15T14:45:26;6.27;;;1.97;;
19343;SDS011;9808;52.402;16.678;2024-01-15T14:47:53;6.13;;;1.30;;
19343;SDS011;9808;52.402;16.678;2024-01-15T14:50:21;5.47;;;1.90;;
19343;SDS011;9808;52.402;16.678;2024-01-15T14:52:48;6.90;;;1.70;;
19343;SDS011;9808;52.402;16.678;2024-01-15T14:55:15;8.87;;;1.67;;
19343;SDS011;9808;52.402;16.678;2024-01-15T14:57:42;7.37;;;2.00;;
19343;SDS011;9808;52.402;16.678;2024-01-15T15:00:10;6.70;;;1.93;;
19343;SDS011;9808;52.402;16.678;2024-01-15T15:02:39;9.30;;;2.30;;
19343;SDS011;9808;52.402;16.678;2024-01-15T15:05:07;4.73;;;2.07;;
19343;SDS011;9808;52.402;16.678;2024-01-15T15:07:34;11.07;;;2.73;;
19343;SDS011;9808;52.402;16.678;2024-01-15T15:10:03;13.23;;;3.90;;
19343;SDS011;9808;52.402;16.678;2024-01-15T15:12:30;8.47;;;3.30;;